createdAt,value
2022-10-18T00:01:12.588Z,98.48
2022-10-18T00:03:40.062Z,98.94
2022-10-18T00:06:09.285Z,99.41
2022-10-18T00:08:38.874Z,99.80
2022-10-18T00:11:07.428Z,99.80
2022-10-18T00:13:34.835Z,99.52
2022-10-18T00:16:07.009Z,99.86
2022-10-18T00:18:34.389Z,100.00
2022-10-18T00:21:07.919Z,99.69
2022-10-18T00:23:35.967Z,99.67
2022-10-18T00:26:12.310Z,99.69
2022-10-18T00:28:40.779Z,99.55
2022-10-18T00:31:38.058Z,99.38
2022-10-18T00:34:13.246Z,99.28
2022-10-18T00:36:41.165Z,99.22
2022-10-18T00:39:16.758Z,98.75
2022-10-18T00:41:44.902Z,98.53
2022-10-18T00:44:12.145Z,98.69
2022-10-18T00:46:42.043Z,98.95
2022-10-18T00:49:47.738Z,99.19
2022-10-18T00:52:35.611Z,99.85
2022-10-18T00:55:07.566Z,99.17
2022-10-18T00:57:36.481Z,99.15
2022-10-18T01:00:09.792Z,100.00
2022-10-18T01:02:38.360Z,100.00
2022-10-18T01:05:06.648Z,100.00
2022-10-18T01:08:06.858Z,100.00
2022-10-18T01:10:46.518Z,100.00
2022-10-18T01:13:29.251Z,100.00
2022-10-18T01:16:25.625Z,100.00
2022-10-18T01:19:08.642Z,100.00
2022-10-18T01:21:57.664Z,99.89
2022-10-18T01:24:57.820Z,98.76
2022-10-18T01:27:50.144Z,97.56
2022-10-18T01:30:42.156Z,98.57
2022-10-18T01:33:21.819Z,99.14
2022-10-18T01:36:06.341Z,98.95
2022-10-18T01:38:37.039Z,99.26
2022-10-18T01:41:06.980Z,99.05
2022-10-18T01:43:39.829Z,99.02
2022-10-18T01:46:09.371Z,98.93
2022-10-18T01:48:38.115Z,99.02
2022-10-18T01:51:05.891Z,98.44
2022-10-18T01:53:34.536Z,97.20
2022-10-18T01:56:16.308Z,97.55
2022-10-18T01:58:43.569Z,98.09
2022-10-18T02:01:33.444Z,98.09
2022-10-18T02:04:11.514Z,98.08
2022-10-18T02:06:44.951Z,97.96
2022-10-18T02:09:20.113Z,98.06
2022-10-18T02:11:52.490Z,98.21
2022-10-18T02:14:23.301Z,97.06
2022-10-18T02:16:54.837Z,97.24
2022-10-18T02:19:28.268Z,97.10
2022-10-18T02:21:58.460Z,97.25
2022-10-18T02:24:39.143Z,97.90
2022-10-18T02:27:06.707Z,98.69
2022-10-18T02:29:35.092Z,98.96
2022-10-18T02:32:14.980Z,99.74
2022-10-18T02:34:47.317Z,100.00
2022-10-18T02:37:17.206Z,99.82
2022-10-18T02:39:48.248Z,100.00
2022-10-18T02:42:16.143Z,100.00
2022-10-18T02:44:43.490Z,100.00
2022-10-18T02:47:12.223Z,100.00
2022-10-18T02:49:39.752Z,100.00
2022-10-18T02:52:07.158Z,100.00
2022-10-18T02:54:34.527Z,100.00
2022-10-18T02:57:01.872Z,100.00
2022-10-18T02:59:29.212Z,100.00
2022-10-18T03:01:56.592Z,100.00
2022-10-18T03:04:24.072Z,100.00
2022-10-18T03:06:51.417Z,100.00
2022-10-18T03:09:18.845Z,100.00
2022-10-18T03:11:46.187Z,100.00
2022-10-18T03:14:13.724Z,100.00
2022-10-18T03:16:41.107Z,100.00
2022-10-18T03:19:08.489Z,100.00
2022-10-18T03:21:35.911Z,100.00
2022-10-18T03:24:03.576Z,100.00
2022-10-18T03:26:30.909Z,100.00
2022-10-18T03:28:58.296Z,100.00
2022-10-18T03:31:25.740Z,100.00
2022-10-18T03:33:53.070Z,100.00
2022-10-18T03:36:20.518Z,100.00
2022-10-18T03:38:47.853Z,100.00
2022-10-18T03:41:15.215Z,100.00
2022-10-18T03:43:42.543Z,100.00
2022-10-18T03:46:09.828Z,100.00
2022-10-18T03:48:37.212Z,100.00
2022-10-18T03:51:04.827Z,100.00
2022-10-18T03:53:32.127Z,100.00
2022-10-18T03:55:59.516Z,100.00
2022-10-18T03:58:26.878Z,100.00
2022-10-18T04:00:55.367Z,100.00
2022-10-18T04:03:23.381Z,100.00
2022-10-18T04:05:51.123Z,100.00
2022-10-18T04:08:19.096Z,100.00
2022-10-18T04:10:46.674Z,100.00
2022-10-18T04:13:14.110Z,100.00
2022-10-18T04:15:41.468Z,100.00
2022-10-18T04:18:08.831Z,100.00
2022-10-18T04:20:36.227Z,100.00
2022-10-18T04:23:03.578Z,100.00
2022-10-18T04:25:30.943Z,100.00
2022-10-18T04:27:58.300Z,100.00
2022-10-18T04:30:25.692Z,100.00
2022-10-18T04:32:55.419Z,100.00
2022-10-18T04:35:24.579Z,100.00
2022-10-18T04:37:52.022Z,100.00
2022-10-18T04:40:20.121Z,100.00
2022-10-18T04:42:47.587Z,100.00
2022-10-18T04:45:14.951Z,100.00
2022-10-18T04:47:42.246Z,100.00
2022-10-18T04:50:09.782Z,100.00
2022-10-18T04:52:37.250Z,100.00
2022-10-18T04:55:04.936Z,100.00
2022-10-18T04:57:32.468Z,100.00
2022-10-18T05:00:00.032Z,100.00
2022-10-18T05:02:27.375Z,100.00
2022-10-18T05:04:55.885Z,100.00
2022-10-18T05:07:23.233Z,100.00
2022-10-18T05:09:50.577Z,100.00
2022-10-18T05:12:17.910Z,100.00
2022-10-18T05:14:45.415Z,100.00
2022-10-18T05:17:12.769Z,100.00
2022-10-18T05:19:40.395Z,100.00
2022-10-18T05:22:07.997Z,100.00
2022-10-18T05:24:35.452Z,100.00
2022-10-18T05:27:03.476Z,100.00
2022-10-18T05:29:30.802Z,100.00
2022-10-18T05:31:58.194Z,100.00
2022-10-18T05:34:27.323Z,100.00
2022-10-18T05:36:54.641Z,100.00
2022-10-18T05:39:22.074Z,100.00
2022-10-18T05:41:49.639Z,100.00
2022-10-18T05:44:20.618Z,100.00
2022-10-18T05:46:47.979Z,100.00
2022-10-18T05:49:15.905Z,100.00
2022-10-18T05:51:43.267Z,100.00
2022-10-18T05:54:14.047Z,100.00
2022-10-18T05:56:41.716Z,100.00
2022-10-18T05:59:12.386Z,100.00
2022-10-18T06:01:42.530Z,100.00
2022-10-18T06:04:10.600Z,100.00
2022-10-18T06:06:39.146Z,100.00
2022-10-18T06:09:08.396Z,100.00
2022-10-18T06:11:36.902Z,100.00
2022-10-18T06:14:05.005Z,100.00
2022-10-18T06:16:32.888Z,100.00
2022-10-18T06:19:00.454Z,100.00
2022-10-18T06:21:27.891Z,99.28
2022-10-18T06:23:58.697Z,97.47
2022-10-18T06:26:27.574Z,97.16
2022-10-18T06:28:55.183Z,96.60
2022-10-18T06:31:22.730Z,96.98
2022-10-18T06:33:50.617Z,98.32
2022-10-18T06:36:24.495Z,98.58
2022-10-18T06:38:52.284Z,98.13
2022-10-18T06:41:20.439Z,98.64
2022-10-18T06:43:50.444Z,97.51
2022-10-18T06:46:17.986Z,97.12
2022-10-18T06:48:45.927Z,96.81
2022-10-18T06:51:13.593Z,95.57
2022-10-18T06:53:44.396Z,94.75
2022-10-18T06:56:20.753Z,94.70
2022-10-18T06:58:48.105Z,94.63
2022-10-18T07:01:17.686Z,93.14
2022-10-18T07:03:47.209Z,93.59
2022-10-18T07:06:17.097Z,92.27
2022-10-18T07:08:45.492Z,89.95
2022-10-18T07:11:24.206Z,92.09
2022-10-18T07:13:54.450Z,93.64
2022-10-18T07:16:21.911Z,93.20
2022-10-18T07:18:51.400Z,92.03
2022-10-18T07:21:21.933Z,92.58
2022-10-18T07:23:50.678Z,92.76
2022-10-18T07:26:22.364Z,91.54
2022-10-18T07:28:58.416Z,91.95
2022-10-18T07:31:26.591Z,91.44
2022-10-18T07:33:54.378Z,91.05
2022-10-18T07:36:22.243Z,89.86
2022-10-18T07:38:51.901Z,87.75
2022-10-18T07:41:20.134Z,83.16
2022-10-18T07:43:50.853Z,80.10
2022-10-18T07:46:19.694Z,73.34
2022-10-18T07:48:49.461Z,67.96
2022-10-18T07:51:17.409Z,62.38
2022-10-18T07:53:45.012Z,62.19
2022-10-18T07:56:21.211Z,59.12
2022-10-18T07:58:51.430Z,55.49
2022-10-18T08:01:20.979Z,54.02
2022-10-18T08:03:48.801Z,52.37
2022-10-18T08:06:19.542Z,50.54
2022-10-18T08:08:47.382Z,49.59
2022-10-18T08:11:20.641Z,48.52
2022-10-18T08:13:48.615Z,48.70
2022-10-18T08:16:21.121Z,49.11
2022-10-18T08:18:48.742Z,49.00
2022-10-18T08:21:18.080Z,48.73
2022-10-18T08:23:46.142Z,48.16
2022-10-18T08:26:16.195Z,46.99
2022-10-18T08:28:53.586Z,47.66
2022-10-18T08:31:28.258Z,48.29
2022-10-18T08:33:57.148Z,48.23
2022-10-18T08:36:25.063Z,48.12
2022-10-18T08:38:52.546Z,46.40
2022-10-18T08:41:19.836Z,47.09
2022-10-18T08:44:06.366Z,46.32
2022-10-18T08:46:37.361Z,46.56
2022-10-18T08:49:07.223Z,45.56
2022-10-18T08:51:46.808Z,44.77
2022-10-18T08:54:21.544Z,43.97
2022-10-18T08:56:59.288Z,43.86
2022-10-18T08:59:32.672Z,43.46
2022-10-18T09:02:26.828Z,43.17
2022-10-18T09:04:58.754Z,42.45
2022-10-18T09:07:36.740Z,41.68
2022-10-18T09:10:41.572Z,43.70
2022-10-18T09:13:08.898Z,43.74
2022-10-18T09:15:59.598Z,43.48
2022-10-18T09:19:02.755Z,44.66
2022-10-18T09:21:36.159Z,44.06
2022-10-18T09:24:13.306Z,44.74
2022-10-18T09:26:46.836Z,44.72
2022-10-18T09:29:37.861Z,46.91
2022-10-18T09:32:22.988Z,46.63
2022-10-18T09:35:07.988Z,47.05
2022-10-18T09:37:35.433Z,48.81
2022-10-18T09:40:19.706Z,49.40
2022-10-18T09:42:55.520Z,50.67
2022-10-18T09:45:31.151Z,50.86
2022-10-18T09:48:08.543Z,51.29
2022-10-18T09:50:41.628Z,51.30
2022-10-18T09:53:33.897Z,51.40
2022-10-18T09:56:17.575Z,52.84
2022-10-18T09:58:47.595Z,52.95
2022-10-18T10:01:21.329Z,54.09
2022-10-18T10:03:48.714Z,54.40
2022-10-18T10:06:23.105Z,54.57
2022-10-18T10:08:58.394Z,54.38
2022-10-18T10:11:31.590Z,55.76
2022-10-18T10:17:22.563Z,54.18
2022-10-18T10:20:18.217Z,55.07
2022-10-18T10:22:49.330Z,53.93
2022-10-18T10:25:25.303Z,55.06
2022-10-18T10:27:53.126Z,57.11
2022-10-18T10:30:25.831Z,57.15
2022-10-18T10:32:55.002Z,57.33
2022-10-18T10:35:52.543Z,56.84
2022-10-18T10:38:28.222Z,55.40
2022-10-18T10:40:56.372Z,56.89
2022-10-18T10:43:38.076Z,57.37
2022-10-18T10:46:19.191Z,57.73
2022-10-18T10:49:04.141Z,57.39
2022-10-18T10:51:40.674Z,54.65
2022-10-18T10:54:16.015Z,53.65
2022-10-18T10:57:12.339Z,52.82
2022-10-18T10:59:42.443Z,55.06
2022-10-18T11:02:17.516Z,54.07
2022-10-18T11:04:46.465Z,55.10
2022-10-18T11:07:13.745Z,54.40
2022-10-18T11:09:58.279Z,55.17
2022-10-18T11:12:34.975Z,54.02
2022-10-18T11:15:14.634Z,53.40
2022-10-18T11:18:02.960Z,52.30
2022-10-18T11:20:41.842Z,52.62
2022-10-18T11:23:14.646Z,51.63
2022-10-18T11:26:03.572Z,51.01
2022-10-18T11:28:50.791Z,52.24
2022-10-18T11:31:36.417Z,52.28
2022-10-18T11:34:25.311Z,51.93
2022-10-18T11:37:34.527Z,52.36
2022-10-18T11:40:03.455Z,51.61
2022-10-18T11:42:40.212Z,51.14
2022-10-18T11:45:35.433Z,51.22
2022-10-18T11:48:21.894Z,50.79
2022-10-18T11:50:58.467Z,49.18
2022-10-18T11:53:36.786Z,49.57
2022-10-18T11:56:25.418Z,48.89
2022-10-18T11:58:58.364Z,49.50
2022-10-18T12:01:34.411Z,50.49
2022-10-18T12:04:18.198Z,49.67
2022-10-18T12:06:48.805Z,50.88
2022-10-18T12:09:43.382Z,51.09
2022-10-18T12:12:26.641Z,50.79
2022-10-18T12:14:59.285Z,51.05
2022-10-18T12:17:46.173Z,50.90
2022-10-18T12:20:33.518Z,51.20
2022-10-18T12:23:04.955Z,51.06
2022-10-18T12:25:43.278Z,51.60
2022-10-18T12:28:22.781Z,51.06
2022-10-18T12:30:58.982Z,51.01
2022-10-18T12:33:34.092Z,51.09
2022-10-18T12:36:30.575Z,51.06
2022-10-18T12:39:01.579Z,51.77
2022-10-18T12:41:32.498Z,52.17
2022-10-18T12:44:22.272Z,52.20
2022-10-18T12:46:55.512Z,51.88
2022-10-18T12:49:29.845Z,51.95
2022-10-18T12:52:04.864Z,52.16
2022-10-18T12:54:37.901Z,51.97
2022-10-18T12:57:22.543Z,52.81
2022-10-18T12:59:50.061Z,52.64
2022-10-18T13:02:26.627Z,52.39
2022-10-18T13:04:56.919Z,51.83
2022-10-18T13:07:40.889Z,51.71
2022-10-18T13:10:12.350Z,51.69
2022-10-18T13:13:29.538Z,51.86
2022-10-18T13:16:03.546Z,51.77
2022-10-18T13:18:46.999Z,51.00
2022-10-18T13:21:30.002Z,51.11
2022-10-18T13:24:06.164Z,50.95
2022-10-18T13:27:24.487Z,52.03
2022-10-18T13:30:26.081Z,50.37
2022-10-18T13:33:14.616Z,51.50
2022-10-18T13:35:55.698Z,51.97
2022-10-18T13:38:40.285Z,52.99
2022-10-18T13:41:13.643Z,51.45
2022-10-18T13:43:53.293Z,51.15
2022-10-18T13:46:46.920Z,51.13
2022-10-18T13:49:38.548Z,51.36
2022-10-18T13:52:24.527Z,52.23
2022-10-18T13:55:10.606Z,52.56
2022-10-18T13:57:50.124Z,52.89
2022-10-18T14:00:33.624Z,52.94
2022-10-18T14:03:57.112Z,53.46
2022-10-18T14:06:23.855Z,54.38
2022-10-18T14:09:26.315Z,53.92
2022-10-18T14:12:17.067Z,54.04
2022-10-18T14:14:50.959Z,54.83
2022-10-18T14:17:36.627Z,54.26
2022-10-18T14:20:49.054Z,55.13
2022-10-18T14:23:37.768Z,56.07
2022-10-18T14:26:16.696Z,55.67
2022-10-18T14:29:00.669Z,55.66
2022-10-18T14:31:28.300Z,55.34
2022-10-18T14:34:00.039Z,55.29
2022-10-18T14:36:34.727Z,55.39
2022-10-18T14:39:05.199Z,55.82
2022-10-18T14:41:38.710Z,56.35
2022-10-18T14:44:15.008Z,56.29
2022-10-18T14:46:47.189Z,56.74
2022-10-18T14:49:16.030Z,56.79
2022-10-18T14:51:50.324Z,57.05
2022-10-18T14:54:26.191Z,57.41
2022-10-18T14:56:58.029Z,57.31
2022-10-18T14:59:28.214Z,57.77
2022-10-18T15:01:59.988Z,57.25
2022-10-18T15:04:32.991Z,57.63
2022-10-18T15:07:03.119Z,58.45
2022-10-18T15:09:32.918Z,58.39
2022-10-18T15:12:02.199Z,57.14
2022-10-18T15:14:30.385Z,57.39
2022-10-18T15:17:29.623Z,57.52
2022-10-18T15:20:03.506Z,58.06
2022-10-18T15:22:33.782Z,58.18
2022-10-18T15:25:16.115Z,58.03
2022-10-18T15:27:50.378Z,58.01
2022-10-18T15:30:44.702Z,58.30
2022-10-18T15:33:23.771Z,57.71
2022-10-18T15:35:53.200Z,58.35
2022-10-18T15:38:31.949Z,58.74
2022-10-18T15:40:59.290Z,58.99
2022-10-18T15:43:26.553Z,58.53
2022-10-18T15:46:00.180Z,58.57
2022-10-18T15:48:36.343Z,58.88
2022-10-18T15:51:09.079Z,58.30
2022-10-18T15:53:45.271Z,57.83
2022-10-18T15:56:12.516Z,57.72
2022-10-18T15:58:47.730Z,58.43
2022-10-18T16:01:18.196Z,59.00
2022-10-18T16:03:47.190Z,60.71
2022-10-18T16:06:18.057Z,61.44
2022-10-18T16:08:51.037Z,61.93
2022-10-18T16:11:24.175Z,63.29
2022-10-18T16:13:55.132Z,63.78
2022-10-18T16:16:28.214Z,64.30
2022-10-18T16:18:56.283Z,64.41
2022-10-18T16:21:26.990Z,64.24
2022-10-18T16:23:57.518Z,65.92
2022-10-18T16:26:25.538Z,67.41
2022-10-18T16:28:54.607Z,67.83
2022-10-18T16:31:28.181Z,68.39
2022-10-18T16:33:56.547Z,68.81
2022-10-18T16:36:29.346Z,68.93
2022-10-18T16:38:58.237Z,68.62
2022-10-18T16:41:25.589Z,69.13
2022-10-18T16:43:53.277Z,69.61
2022-10-18T16:46:23.518Z,69.14
2022-10-18T16:48:51.711Z,69.30
2022-10-18T16:51:20.034Z,69.50
2022-10-18T16:53:47.524Z,69.78
2022-10-18T16:56:20.225Z,70.14
2022-10-18T16:58:48.139Z,70.42
2022-10-18T17:01:18.949Z,70.71
2022-10-18T17:03:47.263Z,71.60
2022-10-18T17:06:32.384Z,72.89
2022-10-18T17:09:00.207Z,73.45
2022-10-18T17:11:28.442Z,74.03
2022-10-18T17:13:56.193Z,73.97
2022-10-18T17:16:26.589Z,74.74
2022-10-18T17:18:58.731Z,74.68
2022-10-18T17:21:27.625Z,74.77
2022-10-18T17:23:55.470Z,75.78
2022-10-18T17:26:28.997Z,76.49
2022-10-18T17:29:00.336Z,76.64
2022-10-18T17:31:31.564Z,76.55
2022-10-18T17:34:01.774Z,77.74
2022-10-18T17:36:34.196Z,78.64
2022-10-18T17:39:02.258Z,79.07
2022-10-18T17:41:29.675Z,79.68
2022-10-18T17:43:56.993Z,79.59
2022-10-18T17:46:24.339Z,80.13
2022-10-18T17:48:51.700Z,80.96
2022-10-18T17:51:22.413Z,81.86
2022-10-18T17:53:49.997Z,82.56
2022-10-18T17:56:17.392Z,82.87
2022-10-18T17:58:45.630Z,83.17
2022-10-18T18:01:19.408Z,83.30
2022-10-18T18:03:50.183Z,83.91
2022-10-18T18:06:20.073Z,83.49
2022-10-18T18:08:48.512Z,83.65
2022-10-18T18:11:17.103Z,83.92
2022-10-18T18:13:44.596Z,83.66
2022-10-18T18:16:21.220Z,82.37
2022-10-18T18:18:51.574Z,82.11
2022-10-18T18:21:19.893Z,82.03
2022-10-18T18:23:48.342Z,82.21
2022-10-18T18:26:18.072Z,82.41
2022-10-18T18:28:45.705Z,83.21
2022-10-18T18:31:16.080Z,84.22
2022-10-18T18:33:43.866Z,84.55
2022-10-18T18:36:12.386Z,85.01
2022-10-18T18:38:42.742Z,85.11
2022-10-18T18:41:11.735Z,84.95
2022-10-18T18:43:41.414Z,85.63
2022-10-18T18:46:09.154Z,85.74
2022-10-18T18:48:40.782Z,85.90
2022-10-18T18:51:16.599Z,86.14
2022-10-18T18:53:45.724Z,86.34
2022-10-18T18:56:15.873Z,86.79
2022-10-18T18:58:45.030Z,86.79
2022-10-18T19:01:17.385Z,86.72
2022-10-18T19:03:50.430Z,87.35
2022-10-18T19:06:38.983Z,87.23
2022-10-18T19:09:22.740Z,87.58
2022-10-18T19:11:53.168Z,87.70
2022-10-18T19:17:01.501Z,87.62
2022-10-18T19:19:30.592Z,87.36
2022-10-18T19:22:00.462Z,87.49
2022-10-18T19:24:30.316Z,87.30
2022-10-18T19:27:06.467Z,88.00
2022-10-18T19:29:37.600Z,88.33
2022-10-18T19:32:07.464Z,89.29
2022-10-18T19:34:35.790Z,89.36
2022-10-18T19:37:03.772Z,89.14
2022-10-18T19:39:34.004Z,89.76
2022-10-18T19:42:04.959Z,89.88
2022-10-18T19:44:36.014Z,90.62
2022-10-18T19:47:05.267Z,90.71
2022-10-18T19:49:35.393Z,90.86
2022-10-18T19:52:02.727Z,91.07
2022-10-18T19:54:30.570Z,91.10
2022-10-18T19:56:58.524Z,91.12
2022-10-18T19:59:26.033Z,91.07
2022-10-18T20:01:53.967Z,90.90
2022-10-18T20:04:21.411Z,90.02
2022-10-18T20:06:50.613Z,90.78
2022-10-18T20:09:20.658Z,90.64
2022-10-18T20:11:48.349Z,91.38
2022-10-18T20:14:16.182Z,91.06
2022-10-18T20:16:43.732Z,92.15
2022-10-18T20:19:11.713Z,92.45
2022-10-18T20:21:39.950Z,92.91
2022-10-18T20:24:07.878Z,93.18
2022-10-18T20:26:36.192Z,93.10
2022-10-18T20:29:05.220Z,92.82
2022-10-18T20:31:36.066Z,93.17
2022-10-18T20:34:06.311Z,93.63
2022-10-18T20:36:34.690Z,93.29
2022-10-18T20:39:02.643Z,92.80
2022-10-18T20:41:35.882Z,93.37
2022-10-18T20:44:07.113Z,93.49
2022-10-18T20:46:36.677Z,93.90
2022-10-18T20:49:06.314Z,93.59
2022-10-18T20:51:35.050Z,93.87
2022-10-18T20:56:34.754Z,93.09
2022-10-18T20:59:02.831Z,92.89
2022-10-18T21:01:33.531Z,92.99
2022-10-18T21:04:03.141Z,92.89
2022-10-18T21:06:33.385Z,92.92
2022-10-18T21:09:05.863Z,93.34
2022-10-18T21:11:41.746Z,93.37
2022-10-18T21:14:15.193Z,92.84
2022-10-18T21:16:43.756Z,92.71
2022-10-18T21:19:20.245Z,92.59
2022-10-18T21:21:50.460Z,93.73
2022-10-18T21:24:19.248Z,94.17
2022-10-18T21:26:47.922Z,93.78
2022-10-18T21:29:20.762Z,93.63
2022-10-18T21:31:52.737Z,93.60
2022-10-18T21:34:20.087Z,94.57
2022-10-18T21:36:48.250Z,94.69
2022-10-18T21:39:21.389Z,95.15
2022-10-18T21:41:49.321Z,94.89
2022-10-18T21:44:18.174Z,94.08
2022-10-18T21:46:46.807Z,93.95
2022-10-18T21:49:14.953Z,93.16
2022-10-18T21:51:42.880Z,93.38
2022-10-18T21:54:13.387Z,93.93
2022-10-18T21:56:40.767Z,93.43
2022-10-18T21:59:10.176Z,93.93
2022-10-18T22:01:40.768Z,94.71
2022-10-18T22:04:20.880Z,94.88
2022-10-18T22:06:48.655Z,95.37
2022-10-18T22:09:18.398Z,95.01
2022-10-18T22:11:49.962Z,95.34
2022-10-18T22:14:17.462Z,95.50
2022-10-18T22:16:46.852Z,95.17
2022-10-18T22:19:14.410Z,94.76
2022-10-18T22:21:41.742Z,95.71
2022-10-18T22:24:09.876Z,95.92
2022-10-18T22:26:42.132Z,95.99
2022-10-18T22:29:12.396Z,95.86
2022-10-18T22:31:42.579Z,95.69
2022-10-18T22:34:15.814Z,96.30
2022-10-18T22:36:43.719Z,96.66
2022-10-18T22:39:14.340Z,96.57
2022-10-18T22:41:42.276Z,96.21
2022-10-18T22:44:14.637Z,95.73
2022-10-18T22:46:42.656Z,95.85
2022-10-18T22:49:11.694Z,96.06
2022-10-18T22:51:39.609Z,96.62
2022-10-18T22:54:07.199Z,96.94
2022-10-18T22:56:35.051Z,96.85
2022-10-18T22:59:02.498Z,96.68
2022-10-18T23:01:29.857Z,96.79
2022-10-18T23:03:59.871Z,97.96
2022-10-18T23:06:35.735Z,98.56
2022-10-18T23:09:10.070Z,98.25
2022-10-18T23:11:38.204Z,98.59
2022-10-18T23:14:07.003Z,98.26
2022-10-18T23:16:34.603Z,98.84
2022-10-18T23:19:02.657Z,98.72
2022-10-18T23:21:30.041Z,99.09
2022-10-18T23:24:00.406Z,98.95
2022-10-18T23:26:28.323Z,98.67
2022-10-18T23:28:56.541Z,98.49
2022-10-18T23:31:29.151Z,98.81
2022-10-18T23:34:00.718Z,98.87
2022-10-18T23:36:28.844Z,98.91
2022-10-18T23:38:56.886Z,99.12
2022-10-18T23:41:25.150Z,99.51
2022-10-18T23:43:52.818Z,99.46
2022-10-18T23:46:20.846Z,99.77
2022-10-18T23:48:48.431Z,99.75
2022-10-18T23:51:16.430Z,99.65
2022-10-18T23:53:45.167Z,99.53
2022-10-18T23:56:15.401Z,99.33
2022-10-18T23:58:43.572Z,98.95
